createdAt,value
2018-04-11T00:01:07.896Z,3.83
2018-04-11T00:03:36.168Z,3.73
2018-04-11T00:06:04.410Z,3.67
2018-04-11T00:08:31.898Z,3.63
2018-04-11T00:11:00.199Z,3.80
2018-04-11T00:13:27.683Z,3.70
2018-04-11T00:15:55.972Z,3.33
2018-04-11T00:18:23.447Z,3.73
2018-04-11T00:20:51.798Z,3.60
2018-04-11T00:23:19.364Z,3.53
2018-04-11T00:25:46.887Z,4.17
2018-04-11T00:28:14.390Z,4.37
2018-04-11T00:30:41.902Z,3.47
2018-04-11T00:33:09.380Z,3.60
2018-04-11T00:35:36.880Z,3.40
2018-04-11T00:38:05.159Z,3.50
2018-04-11T00:40:33.426Z,3.77
2018-04-11T00:43:01.720Z,3.90
2018-04-11T00:45:29.252Z,3.53
2018-04-11T00:47:57.527Z,3.63
2018-04-11T00:50:25.782Z,3.70
2018-04-11T00:53:05.095Z,3.97
2018-04-11T00:55:32.583Z,3.70
2018-04-11T00:58:00.102Z,3.50
2018-04-11T01:00:27.585Z,3.80
2018-04-11T01:02:55.083Z,3.70
2018-04-11T01:05:22.587Z,3.50
2018-04-11T01:07:50.066Z,3.67
2018-04-11T01:10:17.586Z,4.17
2018-04-11T01:12:45.075Z,4.00
2018-04-11T01:15:12.611Z,3.63
2018-04-11T01:17:40.120Z,3.50
2018-04-11T01:20:07.631Z,3.03
2018-04-11T01:22:35.145Z,3.80
2018-04-11T01:25:03.430Z,3.37
2018-04-11T01:27:30.951Z,3.50
2018-04-11T01:29:58.468Z,3.73
2018-04-11T01:32:25.998Z,3.90
2018-04-11T01:34:53.483Z,4.10
2018-04-11T01:37:20.995Z,4.07
2018-04-11T01:39:48.549Z,3.50
2018-04-11T01:42:16.087Z,3.30
2018-04-11T01:44:43.642Z,3.70
2018-04-11T01:47:11.127Z,3.20
2018-04-11T01:49:39.382Z,3.20
2018-04-11T01:52:06.933Z,3.70
2018-04-11T01:54:34.437Z,4.33
2018-04-11T01:57:01.943Z,3.50
2018-04-11T01:59:30.934Z,4.20
2018-04-11T02:01:58.464Z,3.80
2018-04-11T02:04:26.041Z,3.33
2018-04-11T02:06:53.547Z,3.97
2018-04-11T02:09:21.833Z,3.80
2018-04-11T02:11:50.124Z,3.40
2018-04-11T02:14:17.654Z,3.13
2018-04-11T02:16:45.924Z,2.87
2018-04-11T02:19:14.353Z,3.23
2018-04-11T02:21:41.838Z,3.43
2018-04-11T02:24:09.324Z,3.80
2018-04-11T02:26:37.603Z,3.70
2018-04-11T02:29:06.039Z,3.60
2018-04-11T02:31:33.551Z,4.73
2018-04-11T02:34:01.074Z,4.10
2018-04-11T02:36:28.588Z,3.90
2018-04-11T02:38:56.099Z,3.33
2018-04-11T02:41:23.608Z,4.17
2018-04-11T02:43:51.098Z,4.37
2018-04-11T02:46:18.589Z,4.47
2018-04-11T02:48:46.847Z,3.50
2018-04-11T02:51:14.339Z,3.40
2018-04-11T02:53:41.955Z,3.30
2018-04-11T02:56:09.438Z,3.23
2018-04-11T02:58:37.710Z,3.40
2018-04-11T03:01:05.962Z,3.20
2018-04-11T03:03:33.447Z,3.57
2018-04-11T03:06:01.753Z,3.63
2018-04-11T03:08:29.278Z,4.00
2018-04-11T03:10:57.594Z,3.47
2018-04-11T03:13:25.102Z,3.57
2018-04-11T03:15:53.367Z,3.97
2018-04-11T03:18:20.860Z,4.10
2018-04-11T03:20:48.385Z,3.40
2018-04-11T03:23:15.895Z,3.93
2018-04-11T03:25:43.375Z,3.27
2018-04-11T03:28:10.889Z,3.70
2018-04-11T03:30:38.475Z,3.70
2018-04-11T03:33:05.982Z,2.77
2018-04-11T03:35:34.227Z,2.90
2018-04-11T03:38:02.489Z,3.10
2018-04-11T03:40:30.762Z,3.40
2018-04-11T03:42:58.271Z,3.30
2018-04-11T03:45:26.584Z,2.77
2018-04-11T03:47:54.076Z,3.43
2018-04-11T03:50:21.604Z,3.10
2018-04-11T03:52:49.087Z,3.13
2018-04-11T03:55:16.594Z,3.20
2018-04-11T03:57:44.087Z,3.67
2018-04-11T04:00:11.588Z,3.00
2018-04-11T04:02:39.846Z,2.83
2018-04-11T04:05:07.352Z,3.10
2018-04-11T04:07:34.855Z,3.30
2018-04-11T04:10:02.385Z,3.80
2018-04-11T04:12:29.923Z,2.80
2018-04-11T04:15:09.359Z,3.10
2018-04-11T04:17:52.206Z,3.07
2018-04-11T04:20:31.530Z,3.13
2018-04-11T04:22:59.044Z,3.10
2018-04-11T04:25:27.323Z,3.70
2018-04-11T04:27:55.590Z,3.80
2018-04-11T04:30:23.918Z,3.73
2018-04-11T04:32:52.116Z,3.50
2018-04-11T04:35:19.665Z,3.50
2018-04-11T04:37:47.154Z,4.10
2018-04-11T04:40:15.401Z,4.07
2018-04-11T04:42:42.920Z,3.07
2018-04-11T04:45:16.199Z,3.03
2018-04-11T04:47:43.761Z,3.67
2018-04-11T04:50:11.242Z,3.90
2018-04-11T04:52:38.758Z,3.83
2018-04-11T04:55:07.025Z,3.30
2018-04-11T04:57:35.277Z,4.00
2018-04-11T05:00:02.832Z,3.20
2018-04-11T05:02:30.372Z,3.77
2018-04-11T05:04:57.856Z,3.67
2018-04-11T05:07:25.342Z,3.30
2018-04-11T05:09:53.629Z,3.40
2018-04-11T05:12:21.131Z,3.67
2018-04-11T05:14:48.623Z,3.43
2018-04-11T05:17:17.036Z,3.23
2018-04-11T05:19:44.556Z,2.80
2018-04-11T05:22:12.032Z,3.40
2018-04-11T05:24:40.310Z,3.40
2018-04-11T05:27:09.875Z,3.70
2018-04-11T05:29:37.363Z,3.30
2018-04-11T05:32:05.615Z,3.47
2018-04-11T05:34:33.902Z,3.50
2018-04-11T05:37:02.200Z,3.10
2018-04-11T05:39:29.684Z,3.67
2018-04-11T05:41:57.211Z,3.93
2018-04-11T05:44:24.711Z,4.20
2018-04-11T05:46:52.242Z,4.27
2018-04-11T05:49:19.818Z,4.27
2018-04-11T05:51:47.441Z,5.03
2018-04-11T05:54:15.692Z,4.70
2018-04-11T05:56:43.261Z,4.73
2018-04-11T05:59:11.554Z,5.30
2018-04-11T06:01:39.799Z,4.47
2018-04-11T06:04:07.367Z,4.70
2018-04-11T06:06:35.801Z,4.93
2018-04-11T06:09:03.438Z,5.20
2018-04-11T06:11:31.095Z,5.17
2018-04-11T06:13:58.572Z,5.13
2018-04-11T06:16:26.105Z,4.63
2018-04-11T06:18:53.703Z,5.27
2018-04-11T06:21:21.403Z,4.97
2018-04-11T06:23:48.911Z,4.03
2018-04-11T06:26:16.447Z,4.50
2018-04-11T06:28:43.967Z,4.50
2018-04-11T06:31:11.442Z,4.10
2018-04-11T06:33:38.934Z,4.93
2018-04-11T06:36:07.214Z,4.37
2018-04-11T06:38:34.767Z,5.40
2018-04-11T06:41:02.261Z,6.43
2018-04-11T06:43:29.846Z,7.20
2018-04-11T06:45:58.139Z,6.27
2018-04-11T06:48:26.403Z,4.83
2018-04-11T06:50:54.692Z,5.20
2018-04-11T06:53:22.232Z,6.33
2018-04-11T06:55:50.482Z,5.27
2018-04-11T06:58:18.051Z,4.80
2018-04-11T07:00:45.581Z,5.50
2018-04-11T07:03:13.095Z,4.60
2018-04-11T07:05:40.640Z,4.60
2018-04-11T07:08:08.160Z,4.30
2018-04-11T07:10:35.835Z,4.63
2018-04-11T07:13:03.335Z,4.70
2018-04-11T07:15:30.844Z,5.37
2018-04-11T07:17:58.358Z,4.50
2018-04-11T07:20:25.846Z,4.67
2018-04-11T07:22:53.342Z,4.50
2018-04-11T07:25:20.852Z,5.00
2018-04-11T07:27:48.357Z,4.80
2018-04-11T07:30:16.643Z,7.20
2018-04-11T07:32:44.908Z,5.90
2018-04-11T07:35:12.407Z,5.37
2018-04-11T07:37:39.924Z,4.60
2018-04-11T07:40:07.534Z,5.00
2018-04-11T07:42:35.766Z,4.73
2018-04-11T07:45:04.042Z,4.53
2018-04-11T07:47:32.378Z,5.17
2018-04-11T07:49:59.863Z,4.60
2018-04-11T07:52:27.388Z,4.57
2018-04-11T07:54:54.915Z,4.30
2018-04-11T07:57:22.464Z,4.57
2018-04-11T07:59:49.962Z,4.60
2018-04-11T08:02:18.246Z,4.63
2018-04-11T08:04:45.755Z,4.80
2018-04-11T08:07:13.272Z,4.93
2018-04-11T08:09:40.840Z,5.33
2018-04-11T08:12:09.140Z,4.70
2018-04-11T08:14:37.419Z,5.33
2018-04-11T08:17:05.045Z,5.30
2018-04-11T08:19:32.555Z,5.63
2018-04-11T08:22:00.063Z,5.90
2018-04-11T08:24:27.550Z,5.87
2018-04-11T08:26:55.823Z,5.50
2018-04-11T08:29:24.079Z,5.40
2018-04-11T08:31:51.591Z,5.97
2018-04-11T08:34:19.093Z,5.10
2018-04-11T08:36:48.095Z,4.93
2018-04-11T08:39:16.396Z,5.30
2018-04-11T08:41:43.902Z,5.30
2018-04-11T08:44:11.455Z,5.40
2018-04-11T08:46:38.943Z,5.30
2018-04-11T08:49:07.228Z,5.80
2018-04-11T08:51:35.486Z,5.40
2018-04-11T08:54:03.751Z,5.57
2018-04-11T08:56:31.371Z,5.70
2018-04-11T08:58:58.939Z,3.73
2018-04-11T09:01:26.441Z,4.03
2018-04-11T09:03:53.930Z,4.07
2018-04-11T09:06:21.458Z,4.60
2018-04-11T09:08:48.946Z,3.90
2018-04-11T09:11:16.455Z,3.90
2018-04-11T09:13:43.961Z,3.80
2018-04-11T09:16:11.486Z,3.93
2018-04-11T09:18:39.002Z,4.27
2018-04-11T09:21:06.493Z,4.33
2018-04-11T09:23:34.215Z,4.43
2018-04-11T09:26:01.715Z,5.50
2018-04-11T09:28:29.227Z,4.80
2018-04-11T09:30:57.577Z,5.00
2018-04-11T09:33:25.110Z,4.30
2018-04-11T09:35:52.634Z,4.07
2018-04-11T09:38:20.134Z,4.23
2018-04-11T09:40:47.694Z,4.57
2018-04-11T09:43:16.283Z,3.73
2018-04-11T09:45:44.529Z,4.30
2018-04-11T09:48:12.068Z,4.30
2018-04-11T09:50:39.581Z,4.30
2018-04-11T09:53:07.858Z,4.17
2018-04-11T09:55:36.206Z,5.17
2018-04-11T09:58:04.511Z,4.13
2018-04-11T10:00:32.760Z,4.90
2018-04-11T10:03:06.027Z,4.77
2018-04-11T10:05:33.586Z,4.90
2018-04-11T10:08:01.924Z,4.93
2018-04-11T10:10:29.432Z,5.10
2018-04-11T10:12:57.032Z,5.23
2018-04-11T10:15:24.609Z,5.13
2018-04-11T10:17:52.166Z,4.77
2018-04-11T10:20:19.647Z,5.47
2018-04-11T10:22:47.209Z,5.90
2018-04-11T10:25:14.736Z,5.37
2018-04-11T10:27:42.231Z,6.40
2018-04-11T10:30:09.750Z,5.67
2018-04-11T10:32:37.247Z,4.90
2018-04-11T10:35:04.799Z,5.07
2018-04-11T10:37:32.403Z,4.90
2018-04-11T10:40:00.752Z,4.40
2018-04-11T10:42:28.240Z,4.80
2018-04-11T10:44:56.498Z,4.43
2018-04-11T10:47:24.786Z,4.73
2018-04-11T10:49:53.038Z,5.13
2018-04-11T10:52:20.552Z,4.90
2018-04-11T10:54:48.044Z,4.70
2018-04-11T10:57:15.544Z,5.10
2018-04-11T10:59:43.886Z,5.50
2018-04-11T11:02:11.395Z,4.80
2018-04-11T11:04:38.909Z,5.40
2018-04-11T11:07:06.495Z,5.00
2018-04-11T11:09:34.809Z,4.70
2018-04-11T11:12:02.304Z,4.77
2018-04-11T11:14:29.823Z,4.40
2018-04-11T11:16:57.329Z,4.90
2018-04-11T11:19:24.894Z,4.60
2018-04-11T11:21:52.414Z,4.07
2018-04-11T11:24:19.915Z,4.37
2018-04-11T11:26:48.221Z,4.00
2018-04-11T11:29:15.714Z,4.30
2018-04-11T11:31:43.227Z,4.40
2018-04-11T11:34:10.717Z,4.60
2018-04-11T11:36:38.211Z,4.90
2018-04-11T11:39:06.511Z,5.13
2018-04-11T11:41:34.050Z,4.27
2018-04-11T11:44:02.368Z,4.80
2018-04-11T11:46:29.850Z,4.87
2018-04-11T11:48:57.444Z,5.37
2018-04-11T11:51:25.702Z,4.77
2018-04-11T11:53:53.964Z,4.90
2018-04-11T11:56:21.492Z,4.50
2018-04-11T11:58:48.974Z,4.40
2018-04-11T12:01:16.474Z,4.47
2018-04-11T12:03:44.727Z,5.70
2018-04-11T12:06:12.342Z,5.00
2018-04-11T12:08:39.842Z,5.50
2018-04-11T12:11:07.359Z,4.90
2018-04-11T12:13:34.857Z,5.37
2018-04-11T12:16:02.357Z,6.00
2018-04-11T12:18:29.960Z,5.70
2018-04-11T12:20:57.437Z,4.93
2018-04-11T12:23:24.944Z,5.60
2018-04-11T12:25:52.425Z,5.10
2018-04-11T12:28:19.954Z,5.13
2018-04-11T12:30:47.441Z,5.20
2018-04-11T12:33:15.005Z,4.90
2018-04-11T12:35:42.511Z,5.20
2018-04-11T12:38:10.007Z,4.23
2018-04-11T12:40:37.524Z,4.10
2018-04-11T12:43:05.103Z,4.30
2018-04-11T12:45:32.619Z,4.93
2018-04-11T12:48:00.880Z,4.90
2018-04-11T12:50:29.128Z,5.13
2018-04-11T12:52:56.683Z,4.77
2018-04-11T12:55:24.165Z,4.93
2018-04-11T12:57:51.650Z,5.50
2018-04-11T13:00:19.986Z,5.80
2018-04-11T13:02:47.506Z,5.90
2018-04-11T13:05:15.025Z,5.20
2018-04-11T13:07:42.537Z,5.00
2018-04-11T13:10:10.071Z,5.10
2018-04-11T13:12:37.577Z,5.40
2018-04-11T13:15:05.118Z,4.50
2018-04-11T13:17:32.659Z,4.37
2018-04-11T13:20:00.152Z,4.50
2018-04-11T13:22:27.667Z,4.50
2018-04-11T13:24:55.164Z,4.50
2018-04-11T13:27:22.736Z,5.00
2018-04-11T13:29:50.266Z,5.70
2018-04-11T13:32:17.836Z,5.53
2018-04-11T13:34:45.330Z,5.43
2018-04-11T13:37:13.649Z,5.37
2018-04-11T13:39:41.132Z,4.73
2018-04-11T13:42:09.486Z,5.40
2018-04-11T13:44:37.017Z,4.60
2018-04-11T13:47:04.572Z,4.70
2018-04-11T13:49:32.036Z,4.60
2018-04-11T13:51:59.574Z,5.37
2018-04-11T13:54:27.829Z,4.40
2018-04-11T13:56:55.313Z,4.80
2018-04-11T13:59:23.629Z,5.43
2018-04-11T14:01:51.153Z,5.40
2018-04-11T14:04:19.423Z,4.80
2018-04-11T14:06:47.007Z,4.50
2018-04-11T14:09:14.508Z,4.50
2018-04-11T14:11:42.059Z,4.40
2018-04-11T14:14:09.526Z,4.90
2018-04-11T14:16:38.550Z,4.60
2018-04-11T14:19:08.117Z,4.30
2018-04-11T14:21:35.661Z,4.50
2018-04-11T14:24:03.167Z,4.20
2018-04-11T14:26:30.713Z,4.10
2018-04-11T14:28:58.994Z,4.40
2018-04-11T14:31:27.293Z,3.50
2018-04-11T14:33:54.778Z,3.73
2018-04-11T14:36:22.293Z,3.57
2018-04-11T14:38:50.584Z,3.67
2018-04-11T14:41:18.084Z,3.40
2018-04-11T14:43:45.613Z,3.73
2018-04-11T14:46:13.110Z,2.97
2018-04-11T14:48:40.620Z,3.57
2018-04-11T14:51:08.134Z,3.50
2018-04-11T14:53:35.649Z,4.60
2018-04-11T14:56:03.144Z,3.90
2018-04-11T14:58:30.648Z,4.47
2018-04-11T15:00:58.165Z,4.73
2018-04-11T15:03:26.534Z,4.40
2018-04-11T15:05:54.041Z,4.50
2018-04-11T15:08:21.565Z,5.30
2018-04-11T15:10:49.048Z,4.90
2018-04-11T15:13:16.636Z,5.40
2018-04-11T15:15:44.146Z,4.77
2018-04-11T15:18:12.403Z,5.40
2018-04-11T15:20:39.946Z,5.50
2018-04-11T15:23:07.430Z,4.40
2018-04-11T15:25:34.943Z,4.70
2018-04-11T15:28:02.459Z,4.07
2018-04-11T15:30:30.734Z,4.50
2018-04-11T15:32:59.019Z,4.47
2018-04-11T15:35:27.296Z,4.03
2018-04-11T15:37:54.824Z,4.70
2018-04-11T15:40:22.409Z,5.30
2018-04-11T15:42:49.914Z,4.20
2018-04-11T15:45:17.414Z,4.50
2018-04-11T15:47:45.748Z,4.20
2018-04-11T15:50:13.327Z,4.50
2018-04-11T15:52:40.862Z,4.67
2018-04-11T15:55:08.364Z,5.13
2018-04-11T15:57:36.700Z,4.57
2018-04-11T16:00:04.214Z,5.03
2018-04-11T16:02:31.709Z,4.37
2018-04-11T16:04:59.247Z,4.33
2018-04-11T16:07:26.743Z,4.37
2018-04-11T16:09:54.272Z,3.53
2018-04-11T16:12:21.811Z,4.20
2018-04-11T16:14:49.299Z,3.90
2018-04-11T16:17:16.859Z,3.73
2018-04-11T16:19:44.395Z,3.67
2018-04-11T16:22:12.033Z,3.90
2018-04-11T16:24:40.322Z,4.00
2018-04-11T16:27:07.900Z,3.80
2018-04-11T16:29:35.406Z,3.50
2018-04-11T16:32:03.026Z,3.80
2018-04-11T16:34:30.593Z,4.10
2018-04-11T16:36:58.079Z,3.77
2018-04-11T16:39:25.687Z,3.23
2018-04-11T16:41:53.173Z,3.80
2018-04-11T16:44:20.699Z,3.83
2018-04-11T16:46:48.279Z,4.10
2018-04-11T16:49:15.778Z,4.60
2018-04-11T16:51:44.107Z,3.37
2018-04-11T16:54:11.622Z,4.30
2018-04-11T16:56:39.890Z,3.67
2018-04-11T16:59:08.250Z,4.40
2018-04-11T17:01:35.737Z,4.27
2018-04-11T17:04:06.011Z,3.80
2018-04-11T17:06:33.577Z,4.33
2018-04-11T17:09:01.137Z,4.30
2018-04-11T17:11:28.715Z,4.30
2018-04-11T17:13:56.295Z,4.00
2018-04-11T17:16:24.549Z,3.57
2018-04-11T17:18:52.052Z,3.13
2018-04-11T17:21:31.460Z,3.20
2018-04-11T17:24:11.680Z,2.73
2018-04-11T17:29:53.693Z,3.50
2018-04-11T17:32:21.230Z,3.43
2018-04-11T17:34:48.710Z,3.80
2018-04-11T17:37:16.219Z,3.77
2018-04-11T17:39:43.707Z,3.60
2018-04-11T17:42:11.235Z,3.63
2018-04-11T17:44:38.741Z,3.40
2018-04-11T17:47:06.425Z,4.30
2018-04-11T17:49:34.762Z,3.90
2018-04-11T17:52:02.274Z,3.80
2018-04-11T17:54:30.545Z,3.43
2018-04-11T17:56:58.126Z,3.60
2018-04-11T17:59:25.622Z,3.33
2018-04-11T18:01:53.119Z,3.70
2018-04-11T18:04:20.644Z,3.93
2018-04-11T18:06:48.178Z,4.43
2018-04-11T18:09:15.707Z,3.47
2018-04-11T18:11:43.216Z,2.93
2018-04-11T18:14:10.775Z,4.00
2018-04-11T18:16:38.257Z,3.90
2018-04-11T18:19:05.814Z,3.93
2018-04-11T18:21:34.094Z,7.27
2018-04-11T18:24:01.688Z,14.50
2018-04-11T18:26:29.182Z,8.33
2018-04-11T18:28:56.700Z,9.40
2018-04-11T18:31:24.191Z,3.90
2018-04-11T18:33:52.501Z,5.80
2018-04-11T18:36:20.743Z,5.80
2018-04-11T18:38:48.357Z,3.97
2018-04-11T18:41:15.936Z,3.47
2018-04-11T18:43:43.427Z,4.10
2018-04-11T18:46:11.002Z,4.63
2018-04-11T18:48:38.496Z,4.13
2018-04-11T18:51:06.042Z,3.80
2018-04-11T18:53:33.685Z,4.30
2018-04-11T18:56:02.001Z,3.90
2018-04-11T18:58:29.538Z,3.47
2018-04-11T19:00:57.788Z,4.30
2018-04-11T19:03:25.385Z,3.27
2018-04-11T19:05:52.893Z,3.33
2018-04-11T19:08:20.414Z,4.20
2018-04-11T19:10:47.968Z,3.90
2018-04-11T19:13:15.745Z,3.73
2018-04-11T19:15:43.171Z,4.60
2018-04-11T19:18:10.785Z,4.30
2018-04-11T19:20:38.290Z,4.80
2018-04-11T19:23:05.802Z,4.73
2018-04-11T19:25:33.337Z,4.87
2018-04-11T19:28:01.181Z,4.90
2018-04-11T19:30:28.712Z,4.80
2018-04-11T19:32:56.311Z,4.57
2018-04-11T19:35:23.878Z,5.47
2018-04-11T19:37:51.376Z,4.67
2018-04-11T19:40:22.153Z,6.10
2018-04-11T19:42:49.648Z,5.90
2018-04-11T19:45:17.265Z,6.10
2018-04-11T19:47:44.810Z,6.73
2018-04-11T19:50:12.355Z,6.00
2018-04-11T19:52:40.642Z,6.40
2018-04-11T19:55:08.930Z,6.20
2018-04-11T19:57:36.425Z,4.93
2018-04-11T20:00:04.051Z,6.40
2018-04-11T20:02:31.668Z,6.57
2018-04-11T20:04:59.146Z,5.80
2018-04-11T20:07:27.430Z,7.07
2018-04-11T20:09:55.681Z,7.20
2018-04-11T20:12:23.245Z,5.90
2018-04-11T20:14:51.493Z,6.70
2018-04-11T20:17:19.119Z,6.83
2018-04-11T20:19:46.646Z,7.37
2018-04-11T20:22:14.930Z,7.30
2018-04-11T20:24:42.642Z,6.67
2018-04-11T20:27:10.166Z,5.83
2018-04-11T20:29:37.682Z,6.33
2018-04-11T20:32:05.213Z,6.33
2018-04-11T20:34:32.718Z,6.27
2018-04-11T20:37:00.997Z,5.97
2018-04-11T20:39:28.509Z,7.00
2018-04-11T20:41:56.158Z,5.90
2018-04-11T20:44:23.735Z,6.13
2018-04-11T20:46:51.311Z,7.00
2018-04-11T20:49:18.810Z,6.90
2018-04-11T20:51:46.320Z,6.30
2018-04-11T20:54:13.807Z,6.50
2018-04-11T20:56:41.322Z,6.90
2018-04-11T20:59:08.824Z,6.67
2018-04-11T21:01:36.366Z,6.87
2018-04-11T21:04:04.650Z,6.40
2018-04-11T21:06:32.958Z,7.83
2018-04-11T21:09:00.453Z,7.23
2018-04-11T21:11:27.940Z,6.73
2018-04-11T21:13:56.206Z,5.97
2018-04-11T21:16:23.690Z,6.33
2018-04-11T21:18:51.297Z,7.00
2018-04-11T21:21:18.812Z,7.40
2018-04-11T21:23:46.357Z,6.60
2018-04-11T21:26:13.868Z,6.27
2018-04-11T21:28:41.374Z,6.67
2018-04-11T21:31:08.886Z,6.97
2018-04-11T21:33:36.418Z,7.20
2018-04-11T21:36:04.016Z,7.37
2018-04-11T21:38:31.618Z,7.00
2018-04-11T21:40:59.965Z,7.30
2018-04-11T21:43:28.234Z,7.27
2018-04-11T21:45:55.734Z,7.43
2018-04-11T21:48:23.286Z,6.80
2018-04-11T21:50:50.797Z,6.73
2018-04-11T21:53:18.306Z,7.10
2018-04-11T21:55:45.900Z,7.73
2018-04-11T21:58:13.394Z,7.70
2018-04-11T22:00:41.707Z,7.83
2018-04-11T22:03:09.215Z,7.20
2018-04-11T22:05:36.736Z,7.50
2018-04-11T22:08:04.294Z,7.13
2018-04-11T22:10:31.820Z,7.90
2018-04-11T22:12:59.335Z,6.63
2018-04-11T22:15:27.045Z,6.73
2018-04-11T22:17:54.530Z,7.17
2018-04-11T22:20:22.852Z,7.20
2018-04-11T22:22:51.127Z,6.53
2018-04-11T22:25:19.422Z,6.97
2018-04-11T22:27:46.931Z,6.10
2018-04-11T22:30:14.452Z,6.93
2018-04-11T22:32:41.929Z,6.60
2018-04-11T22:35:09.452Z,6.50
2018-04-11T22:37:37.105Z,5.30
2018-04-11T22:40:05.435Z,5.70
2018-04-11T22:42:32.946Z,5.63
2018-04-11T22:45:00.527Z,6.00
2018-04-11T22:47:28.148Z,4.73
2018-04-11T22:49:55.698Z,5.77
2018-04-11T22:52:24.008Z,5.40
2018-04-11T22:54:51.540Z,5.13
2018-04-11T22:57:19.911Z,5.60
2018-04-11T22:59:48.668Z,5.53
2018-04-11T23:02:16.967Z,4.27
2018-04-11T23:04:44.485Z,4.80
2018-04-11T23:07:12.037Z,4.67
2018-04-11T23:09:39.640Z,5.00
2018-04-11T23:12:07.225Z,5.37
2018-04-11T23:14:34.765Z,5.70
2018-04-11T23:17:02.259Z,5.13
2018-04-11T23:19:29.930Z,5.37
2018-04-11T23:21:57.448Z,5.00
2018-04-11T23:24:25.763Z,5.10
2018-04-11T23:26:53.254Z,5.30
2018-04-11T23:29:20.745Z,5.30
2018-04-11T23:31:49.016Z,5.33
2018-04-11T23:34:17.263Z,4.80
2018-04-11T23:36:44.803Z,5.60
2018-04-11T23:39:12.366Z,5.77
2018-04-11T23:41:39.854Z,5.80
2018-04-11T23:44:07.401Z,6.27
2018-04-11T23:46:34.925Z,6.50
2018-04-11T23:49:02.425Z,6.20
2018-04-11T23:51:29.985Z,6.90
2018-04-11T23:53:58.260Z,6.43
2018-04-11T23:56:25.795Z,6.37
2018-04-11T23:58:53.322Z,6.20
